sensor_id;sensor_type;location;lat;lon;timestamp;temperature;humidity
35523;DHT22;61478;50.820;4.330;2023-04-24T00:00:38;9.80;99.90
35523;DHT22;61478;50.820;4.330;2023-04-24T00:03:06;9.80;99.90
35523;DHT22;61478;50.820;4.330;2023-04-24T00:05:33;9.80;99.90
35523;DHT22;61478;50.820;4.330;2023-04-24T00:07:59;9.70;99.90
35523;DHT22;61478;50.820;4.330;2023-04-24T00:10:25;9.70;99.90
35523;DHT22;61478;50.820;4.330;2023-04-24T00:12:51;9.80;99.90
35523;DHT22;61478;50.820;4.330;2023-04-24T00:15:17;9.80;99.90
35523;DHT22;61478;50.820;4.330;2023-04-24T00:17:43;9.70;99.90
35523;DHT22;61478;50.820;4.330;2023-04-24T00:20:09;9.70;99.90
35523;DHT22;61478;50.820;4.330;2023-04-24T00:22:36;9.70;99.90
35523;DHT22;61478;50.820;4.330;2023-04-24T00:25:02;9.70;99.90
35523;DHT22;61478;50.820;4.330;2023-04-24T00:27:28;9.70;99.90
35523;DHT22;61478;50.820;4.330;2023-04-24T00:29:54;9.70;99.90
35523;DHT22;61478;50.820;4.330;2023-04-24T00:32:20;9.60;99.90
35523;DHT22;61478;50.820;4.330;2023-04-24T00:34:46;9.60;99.90
35523;DHT22;61478;50.820;4.330;2023-04-24T00:37:12;9.60;99.90
35523;DHT22;61478;50.820;4.330;2023-04-24T00:39:38;9.60;99.90
35523;DHT22;61478;50.820;4.330;2023-04-24T00:42:04;9.60;99.90
35523;DHT22;61478;50.820;4.330;2023-04-24T00:44:33;9.60;99.90
35523;DHT22;61478;50.820;4.330;2023-04-24T00:47:00;9.60;99.90
35523;DHT22;61478;50.820;4.330;2023-04-24T00:49:26;9.60;99.90
35523;DHT22;61478;50.820;4.330;2023-04-24T00:51:52;9.60;99.90
35523;DHT22;61478;50.820;4.330;2023-04-24T00:54:19;9.50;99.90
35523;DHT22;61478;50.820;4.330;2023-04-24T00:56:46;9.60;99.90
35523;DHT22;61478;50.820;4.330;2023-04-24T00:59:13;9.50;99.90
35523;DHT22;61478;50.820;4.330;2023-04-24T01:01:39;9.60;99.90
35523;DHT22;61478;50.820;4.330;2023-04-24T01:04:09;9.60;99.90
35523;DHT22;61478;50.820;4.330;2023-04-24T01:06:39;9.60;99.90
35523;DHT22;61478;50.820;4.330;2023-04-24T01:09:05;9.60;99.90
35523;DHT22;61478;50.820;4.330;2023-04-24T01:11:33;9.50;99.90
35523;DHT22;61478;50.820;4.330;2023-04-24T01:13:59;9.50;99.90
35523;DHT22;61478;50.820;4.330;2023-04-24T01:16:25;9.40;99.90
35523;DHT22;61478;50.820;4.330;2023-04-24T01:18:51;9.40;99.90
35523;DHT22;61478;50.820;4.330;2023-04-24T01:21:18;9.40;99.90
35523;DHT22;61478;50.820;4.330;2023-04-24T01:23:45;9.40;99.90
35523;DHT22;61478;50.820;4.330;2023-04-24T01:26:13;9.40;99.90
35523;DHT22;61478;50.820;4.330;2023-04-24T01:28:39;9.30;99.90
35523;DHT22;61478;50.820;4.330;2023-04-24T01:31:05;9.30;99.90
35523;DHT22;61478;50.820;4.330;2023-04-24T01:33:31;9.30;99.90
35523;DHT22;61478;50.820;4.330;2023-04-24T01:35:58;9.30;99.90
35523;DHT22;61478;50.820;4.330;2023-04-24T01:38:24;9.30;99.90
35523;DHT22;61478;50.820;4.330;2023-04-24T01:40:51;9.30;99.90
35523;DHT22;61478;50.820;4.330;2023-04-24T01:43:17;9.30;99.90
35523;DHT22;61478;50.820;4.330;2023-04-24T01:45:43;9.20;99.90
35523;DHT22;61478;50.820;4.330;2023-04-24T01:48:12;9.20;99.90
35523;DHT22;61478;50.820;4.330;2023-04-24T01:50:39;9.20;99.90
35523;DHT22;61478;50.820;4.330;2023-04-24T01:53:05;9.20;99.90
35523;DHT22;61478;50.820;4.330;2023-04-24T01:55:31;9.30;99.90
35523;DHT22;61478;50.820;4.330;2023-04-24T01:57:57;9.30;99.90
35523;DHT22;61478;50.820;4.330;2023-04-24T02:00:25;9.40;99.90
35523;DHT22;61478;50.820;4.330;2023-04-24T02:02:51;9.40;99.90
35523;DHT22;61478;50.820;4.330;2023-04-24T02:05:17;9.40;99.90
35523;DHT22;61478;50.820;4.330;2023-04-24T02:07:43;9.30;99.90
35523;DHT22;61478;50.820;4.330;2023-04-24T02:10:10;9.30;99.90
35523;DHT22;61478;50.820;4.330;2023-04-24T02:12:36;9.30;99.90
35523;DHT22;61478;50.820;4.330;2023-04-24T02:15:02;9.30;99.90
35523;DHT22;61478;50.820;4.330;2023-04-24T02:17:28;9.20;99.90
35523;DHT22;61478;50.820;4.330;2023-04-24T02:19:54;9.20;99.90
35523;DHT22;61478;50.820;4.330;2023-04-24T02:22:20;9.20;99.90
35523;DHT22;61478;50.820;4.330;2023-04-24T02:24:45;9.10;99.90
35523;DHT22;61478;50.820;4.330;2023-04-24T02:27:11;9.10;99.90
35523;DHT22;61478;50.820;4.330;2023-04-24T02:29:37;9.10;99.90
35523;DHT22;61478;50.820;4.330;2023-04-24T02:32:03;9.10;99.90
35523;DHT22;61478;50.820;4.330;2023-04-24T02:34:29;9.10;99.90
35523;DHT22;61478;50.820;4.330;2023-04-24T02:36:55;9.10;99.90
35523;DHT22;61478;50.820;4.330;2023-04-24T02:39:21;9.10;99.90
35523;DHT22;61478;50.820;4.330;2023-04-24T02:41:47;9.10;99.90
35523;DHT22;61478;50.820;4.330;2023-04-24T02:44:13;9.10;99.90
35523;DHT22;61478;50.820;4.330;2023-04-24T02:46:39;9.10;99.90
35523;DHT22;61478;50.820;4.330;2023-04-24T02:49:06;9.10;99.90
35523;DHT22;61478;50.820;4.330;2023-04-24T02:51:32;9.10;99.90
35523;DHT22;61478;50.820;4.330;2023-04-24T02:53:58;9.00;99.90
35523;DHT22;61478;50.820;4.330;2023-04-24T02:56:24;9.00;99.90
35523;DHT22;61478;50.820;4.330;2023-04-24T02:58:50;9.00;99.90
35523;DHT22;61478;50.820;4.330;2023-04-24T03:01:16;9.00;99.90
35523;DHT22;61478;50.820;4.330;2023-04-24T03:03:44;8.90;99.90
35523;DHT22;61478;50.820;4.330;2023-04-24T03:06:10;9.00;99.90
35523;DHT22;61478;50.820;4.330;2023-04-24T03:08:36;9.00;99.90
35523;DHT22;61478;50.820;4.330;2023-04-24T03:11:02;9.00;99.90
35523;DHT22;61478;50.820;4.330;2023-04-24T03:13:28;9.00;99.90
35523;DHT22;61478;50.820;4.330;2023-04-24T03:15:54;9.00;99.90
35523;DHT22;61478;50.820;4.330;2023-04-24T03:18:20;9.00;99.90
35523;DHT22;61478;50.820;4.330;2023-04-24T03:20:47;9.00;99.90
35523;DHT22;61478;50.820;4.330;2023-04-24T03:23:13;9.00;99.90
35523;DHT22;61478;50.820;4.330;2023-04-24T03:25:39;9.00;99.90
35523;DHT22;61478;50.820;4.330;2023-04-24T03:28:06;8.90;99.90
35523;DHT22;61478;50.820;4.330;2023-04-24T03:30:32;9.00;99.90
35523;DHT22;61478;50.820;4.330;2023-04-24T03:32:58;8.90;99.90
35523;DHT22;61478;50.820;4.330;2023-04-24T03:35:23;8.90;99.90
35523;DHT22;61478;50.820;4.330;2023-04-24T03:37:49;9.00;99.90
35523;DHT22;61478;50.820;4.330;2023-04-24T03:40:15;9.00;99.90
35523;DHT22;61478;50.820;4.330;2023-04-24T03:42:41;9.00;99.90
35523;DHT22;61478;50.820;4.330;2023-04-24T03:45:08;9.00;99.90
35523;DHT22;61478;50.820;4.330;2023-04-24T03:47:34;9.00;99.90
35523;DHT22;61478;50.820;4.330;2023-04-24T03:50:00;8.90;99.90
35523;DHT22;61478;50.820;4.330;2023-04-24T03:52:26;9.00;99.90
35523;DHT22;61478;50.820;4.330;2023-04-24T03:54:52;9.00;99.90
35523;DHT22;61478;50.820;4.330;2023-04-24T03:57:18;9.00;99.90
35523;DHT22;61478;50.820;4.330;2023-04-24T03:59:43;9.10;99.90
35523;DHT22;61478;50.820;4.330;2023-04-24T04:02:10;9.10;99.90
35523;DHT22;61478;50.820;4.330;2023-04-24T04:04:35;9.20;99.90
35523;DHT22;61478;50.820;4.330;2023-04-24T04:07:02;9.20;99.90
35523;DHT22;61478;50.820;4.330;2023-04-24T04:09:28;9.30;99.90
35523;DHT22;61478;50.820;4.330;2023-04-24T04:11:54;9.20;99.90
35523;DHT22;61478;50.820;4.330;2023-04-24T04:14:21;9.20;99.90
35523;DHT22;61478;50.820;4.330;2023-04-24T04:16:47;9.20;99.90
35523;DHT22;61478;50.820;4.330;2023-04-24T04:19:13;9.20;99.90
35523;DHT22;61478;50.820;4.330;2023-04-24T04:21:42;9.30;99.90
35523;DHT22;61478;50.820;4.330;2023-04-24T04:24:08;9.30;99.90
35523;DHT22;61478;50.820;4.330;2023-04-24T04:26:35;9.30;99.90
35523;DHT22;61478;50.820;4.330;2023-04-24T04:29:03;9.30;99.90
35523;DHT22;61478;50.820;4.330;2023-04-24T04:31:32;9.30;99.90
35523;DHT22;61478;50.820;4.330;2023-04-24T04:33:58;9.30;99.90
35523;DHT22;61478;50.820;4.330;2023-04-24T04:36:25;9.30;99.90
35523;DHT22;61478;50.820;4.330;2023-04-24T04:38:51;9.30;99.90
35523;DHT22;61478;50.820;4.330;2023-04-24T04:41:17;9.30;99.90
35523;DHT22;61478;50.820;4.330;2023-04-24T04:43:43;9.20;99.90
35523;DHT22;61478;50.820;4.330;2023-04-24T04:46:09;9.20;99.90
35523;DHT22;61478;50.820;4.330;2023-04-24T04:48:36;9.20;99.90
35523;DHT22;61478;50.820;4.330;2023-04-24T04:51:03;9.10;99.90
35523;DHT22;61478;50.820;4.330;2023-04-24T04:53:29;9.10;99.90
35523;DHT22;61478;50.820;4.330;2023-04-24T04:55:55;9.10;99.90
35523;DHT22;61478;50.820;4.330;2023-04-24T04:58:21;9.10;99.90
35523;DHT22;61478;50.820;4.330;2023-04-24T05:00:47;9.10;99.90
35523;DHT22;61478;50.820;4.330;2023-04-24T05:03:14;9.10;99.90
35523;DHT22;61478;50.820;4.330;2023-04-24T05:05:40;9.20;99.90
35523;DHT22;61478;50.820;4.330;2023-04-24T05:08:07;9.20;99.90
35523;DHT22;61478;50.820;4.330;2023-04-24T05:10:34;9.10;99.90
35523;DHT22;61478;50.820;4.330;2023-04-24T05:13:00;9.10;99.90
35523;DHT22;61478;50.820;4.330;2023-04-24T05:15:26;9.10;99.90
35523;DHT22;61478;50.820;4.330;2023-04-24T05:17:52;9.10;99.90
35523;DHT22;61478;50.820;4.330;2023-04-24T05:20:18;9.10;99.90
35523;DHT22;61478;50.820;4.330;2023-04-24T05:22:44;9.10;99.90
35523;DHT22;61478;50.820;4.330;2023-04-24T05:25:10;9.10;99.90
35523;DHT22;61478;50.820;4.330;2023-04-24T05:27:38;9.10;99.90
35523;DHT22;61478;50.820;4.330;2023-04-24T05:30:04;9.10;99.90
35523;DHT22;61478;50.820;4.330;2023-04-24T05:32:30;9.10;99.90
35523;DHT22;61478;50.820;4.330;2023-04-24T05:34:56;9.10;99.90
35523;DHT22;61478;50.820;4.330;2023-04-24T05:37:22;9.10;99.90
35523;DHT22;61478;50.820;4.330;2023-04-24T05:39:48;9.10;99.90
35523;DHT22;61478;50.820;4.330;2023-04-24T05:42:14;9.10;99.90
35523;DHT22;61478;50.820;4.330;2023-04-24T05:44:40;9.10;99.90
35523;DHT22;61478;50.820;4.330;2023-04-24T05:47:06;9.10;99.90
35523;DHT22;61478;50.820;4.330;2023-04-24T05:49:32;9.10;99.90
35523;DHT22;61478;50.820;4.330;2023-04-24T05:51:58;9.10;99.90
35523;DHT22;61478;50.820;4.330;2023-04-24T05:54:24;9.10;99.90
35523;DHT22;61478;50.820;4.330;2023-04-24T05:56:50;9.10;99.90
35523;DHT22;61478;50.820;4.330;2023-04-24T05:59:16;9.00;99.90
35523;DHT22;61478;50.820;4.330;2023-04-24T06:01:42;9.00;99.90
35523;DHT22;61478;50.820;4.330;2023-04-24T06:04:08;9.00;99.90
35523;DHT22;61478;50.820;4.330;2023-04-24T06:06:35;9.10;99.90
35523;DHT22;61478;50.820;4.330;2023-04-24T06:09:04;9.00;99.90
35523;DHT22;61478;50.820;4.330;2023-04-24T06:11:30;8.90;99.90
35523;DHT22;61478;50.820;4.330;2023-04-24T06:13:56;8.90;99.90
35523;DHT22;61478;50.820;4.330;2023-04-24T06:16:22;8.90;99.90
35523;DHT22;61478;50.820;4.330;2023-04-24T06:18:48;9.00;99.90
35523;DHT22;61478;50.820;4.330;2023-04-24T06:21:16;9.00;99.90
35523;DHT22;61478;50.820;4.330;2023-04-24T06:23:42;9.00;99.90
35523;DHT22;61478;50.820;4.330;2023-04-24T06:26:08;9.00;99.90
35523;DHT22;61478;50.820;4.330;2023-04-24T06:28:34;8.90;99.90
35523;DHT22;61478;50.820;4.330;2023-04-24T06:31:00;8.90;99.90
35523;DHT22;61478;50.820;4.330;2023-04-24T06:33:26;8.90;99.90
35523;DHT22;61478;50.820;4.330;2023-04-24T06:35:52;8.90;99.90
35523;DHT22;61478;50.820;4.330;2023-04-24T06:38:18;8.90;99.90
35523;DHT22;61478;50.820;4.330;2023-04-24T06:40:44;9.00;99.90
35523;DHT22;61478;50.820;4.330;2023-04-24T06:43:11;9.00;99.90
35523;DHT22;61478;50.820;4.330;2023-04-24T06:45:37;9.00;99.90
35523;DHT22;61478;50.820;4.330;2023-04-24T06:48:04;9.00;99.90
35523;DHT22;61478;50.820;4.330;2023-04-24T06:50:30;9.20;99.90
35523;DHT22;61478;50.820;4.330;2023-04-24T06:52:56;9.10;99.90
35523;DHT22;61478;50.820;4.330;2023-04-24T06:55:22;9.10;99.90
35523;DHT22;61478;50.820;4.330;2023-04-24T06:57:48;9.20;99.90
35523;DHT22;61478;50.820;4.330;2023-04-24T07:00:14;9.20;99.90
35523;DHT22;61478;50.820;4.330;2023-04-24T07:02:41;9.20;99.90
35523;DHT22;61478;50.820;4.330;2023-04-24T07:05:07;9.20;99.90
35523;DHT22;61478;50.820;4.330;2023-04-24T07:07:34;9.30;99.90
35523;DHT22;61478;50.820;4.330;2023-04-24T07:10:00;9.30;99.90
35523;DHT22;61478;50.820;4.330;2023-04-24T07:12:26;9.30;99.90
35523;DHT22;61478;50.820;4.330;2023-04-24T07:14:52;9.30;99.90
35523;DHT22;61478;50.820;4.330;2023-04-24T07:17:17;9.30;99.90
35523;DHT22;61478;50.820;4.330;2023-04-24T07:19:43;9.20;99.90
35523;DHT22;61478;50.820;4.330;2023-04-24T07:22:09;9.30;99.90
35523;DHT22;61478;50.820;4.330;2023-04-24T07:24:45;9.30;99.90
35523;DHT22;61478;50.820;4.330;2023-04-24T07:27:11;9.40;99.90
35523;DHT22;61478;50.820;4.330;2023-04-24T07:29:41;9.50;99.90
35523;DHT22;61478;50.820;4.330;2023-04-24T07:32:06;9.40;99.90
35523;DHT22;61478;50.820;4.330;2023-04-24T07:34:33;9.70;99.90
35523;DHT22;61478;50.820;4.330;2023-04-24T07:36:59;9.80;99.90
35523;DHT22;61478;50.820;4.330;2023-04-24T07:39:26;9.70;99.90
35523;DHT22;61478;50.820;4.330;2023-04-24T07:41:53;9.60;99.90
35523;DHT22;61478;50.820;4.330;2023-04-24T07:44:19;9.50;99.90
35523;DHT22;61478;50.820;4.330;2023-04-24T07:46:45;9.50;99.90
35523;DHT22;61478;50.820;4.330;2023-04-24T07:49:11;9.60;99.90
35523;DHT22;61478;50.820;4.330;2023-04-24T07:51:37;9.70;99.90
35523;DHT22;61478;50.820;4.330;2023-04-24T07:54:04;9.70;99.90
35523;DHT22;61478;50.820;4.330;2023-04-24T07:56:34;9.80;99.90
35523;DHT22;61478;50.820;4.330;2023-04-24T07:59:01;9.80;99.90
35523;DHT22;61478;50.820;4.330;2023-04-24T08:01:27;9.80;99.90
35523;DHT22;61478;50.820;4.330;2023-04-24T08:03:53;9.80;99.90
35523;DHT22;61478;50.820;4.330;2023-04-24T08:06:22;9.80;99.90
35523;DHT22;61478;50.820;4.330;2023-04-24T08:08:48;9.80;99.90
35523;DHT22;61478;50.820;4.330;2023-04-24T08:11:14;9.80;99.90
35523;DHT22;61478;50.820;4.330;2023-04-24T08:13:40;9.90;99.90
35523;DHT22;61478;50.820;4.330;2023-04-24T08:16:06;10.00;99.90
35523;DHT22;61478;50.820;4.330;2023-04-24T08:18:32;10.10;99.90
35523;DHT22;61478;50.820;4.330;2023-04-24T08:21:00;10.10;99.90
35523;DHT22;61478;50.820;4.330;2023-04-24T08:23:27;10.20;99.90
35523;DHT22;61478;50.820;4.330;2023-04-24T08:25:53;10.30;99.90
35523;DHT22;61478;50.820;4.330;2023-04-24T08:28:18;10.30;99.90
35523;DHT22;61478;50.820;4.330;2023-04-24T08:30:46;10.30;99.90
35523;DHT22;61478;50.820;4.330;2023-04-24T08:33:20;10.30;99.90
35523;DHT22;61478;50.820;4.330;2023-04-24T08:35:46;10.30;99.90
35523;DHT22;61478;50.820;4.330;2023-04-24T08:38:12;10.30;99.90
35523;DHT22;61478;50.820;4.330;2023-04-24T08:40:38;10.40;99.90
35523;DHT22;61478;50.820;4.330;2023-04-24T08:43:05;10.70;99.90
35523;DHT22;61478;50.820;4.330;2023-04-24T08:45:33;10.80;99.90
35523;DHT22;61478;50.820;4.330;2023-04-24T08:47:59;10.90;99.90
35523;DHT22;61478;50.820;4.330;2023-04-24T08:50:25;10.90;99.90
35523;DHT22;61478;50.820;4.330;2023-04-24T08:52:52;11.00;99.90
35523;DHT22;61478;50.820;4.330;2023-04-24T08:55:20;11.10;99.90
35523;DHT22;61478;50.820;4.330;2023-04-24T08:57:50;11.10;99.90
35523;DHT22;61478;50.820;4.330;2023-04-24T09:00:19;11.40;99.90
35523;DHT22;61478;50.820;4.330;2023-04-24T09:02:45;11.90;99.90
35523;DHT22;61478;50.820;4.330;2023-04-24T09:05:13;11.90;99.90
35523;DHT22;61478;50.820;4.330;2023-04-24T09:07:41;12.10;99.90
35523;DHT22;61478;50.820;4.330;2023-04-24T09:10:10;12.10;99.90
35523;DHT22;61478;50.820;4.330;2023-04-24T09:12:37;12.00;99.90
35523;DHT22;61478;50.820;4.330;2023-04-24T09:15:03;12.00;99.90
35523;DHT22;61478;50.820;4.330;2023-04-24T09:17:30;12.20;99.90
35523;DHT22;61478;50.820;4.330;2023-04-24T09:19:56;12.40;99.90
35523;DHT22;61478;50.820;4.330;2023-04-24T09:22:23;12.30;99.90
35523;DHT22;61478;50.820;4.330;2023-04-24T09:25:01;12.30;99.90
35523;DHT22;61478;50.820;4.330;2023-04-24T09:27:29;12.20;99.90
35523;DHT22;61478;50.820;4.330;2023-04-24T09:29:57;12.00;99.90
35523;DHT22;61478;50.820;4.330;2023-04-24T09:32:24;11.80;99.90
35523;DHT22;61478;50.820;4.330;2023-04-24T09:35:12;11.80;99.90
35523;DHT22;61478;50.820;4.330;2023-04-24T09:37:42;12.30;99.90
35523;DHT22;61478;50.820;4.330;2023-04-24T09:40:15;13.00;99.90
35523;DHT22;61478;50.820;4.330;2023-04-24T09:42:46;13.80;99.90
35523;DHT22;61478;50.820;4.330;2023-04-24T09:45:16;14.70;99.90
35523;DHT22;61478;50.820;4.330;2023-04-24T09:47:42;14.50;99.90
35523;DHT22;61478;50.820;4.330;2023-04-24T09:50:27;13.90;99.90
35523;DHT22;61478;50.820;4.330;2023-04-24T09:53:01;13.30;99.90
35523;DHT22;61478;50.820;4.330;2023-04-24T09:55:27;12.60;99.90
35523;DHT22;61478;50.820;4.330;2023-04-24T09:57:58;12.20;99.90
35523;DHT22;61478;50.820;4.330;2023-04-24T10:00:28;12.00;99.90
35523;DHT22;61478;50.820;4.330;2023-04-24T10:03:12;11.90;99.90
35523;DHT22;61478;50.820;4.330;2023-04-24T10:05:38;12.00;99.90
35523;DHT22;61478;50.820;4.330;2023-04-24T10:08:11;11.90;99.90
35523;DHT22;61478;50.820;4.330;2023-04-24T10:10:43;11.90;99.90
35523;DHT22;61478;50.820;4.330;2023-04-24T10:13:13;11.80;99.90
35523;DHT22;61478;50.820;4.330;2023-04-24T10:15:41;11.70;99.90
35523;DHT22;61478;50.820;4.330;2023-04-24T10:18:08;11.70;99.90
35523;DHT22;61478;50.820;4.330;2023-04-24T10:20:37;11.80;99.90
35523;DHT22;61478;50.820;4.330;2023-04-24T10:23:04;11.70;99.90
35523;DHT22;61478;50.820;4.330;2023-04-24T10:25:32;11.80;99.90
35523;DHT22;61478;50.820;4.330;2023-04-24T10:27:59;11.80;99.90
35523;DHT22;61478;50.820;4.330;2023-04-24T10:30:30;11.70;99.90
35523;DHT22;61478;50.820;4.330;2023-04-24T10:32:56;11.70;99.90
35523;DHT22;61478;50.820;4.330;2023-04-24T10:35:23;11.60;99.90
35523;DHT22;61478;50.820;4.330;2023-04-24T10:37:58;11.60;99.90
35523;DHT22;61478;50.820;4.330;2023-04-24T10:40:33;11.60;99.90
35523;DHT22;61478;50.820;4.330;2023-04-24T10:43:01;11.60;99.90
35523;DHT22;61478;50.820;4.330;2023-04-24T10:45:27;11.80;99.90
35523;DHT22;61478;50.820;4.330;2023-04-24T10:50:22;11.90;99.90
35523;DHT22;61478;50.820;4.330;2023-04-24T10:52:49;12.20;99.90
35523;DHT22;61478;50.820;4.330;2023-04-24T10:55:49;12.20;99.90
35523;DHT22;61478;50.820;4.330;2023-04-24T10:58:16;12.20;99.90
35523;DHT22;61478;50.820;4.330;2023-04-24T11:00:43;12.20;99.90
35523;DHT22;61478;50.820;4.330;2023-04-24T11:03:38;12.20;99.90
35523;DHT22;61478;50.820;4.330;2023-04-24T11:06:08;12.20;99.90
35523;DHT22;61478;50.820;4.330;2023-04-24T11:08:48;12.10;99.90
35523;DHT22;61478;50.820;4.330;2023-04-24T11:11:16;12.20;99.90
35523;DHT22;61478;50.820;4.330;2023-04-24T11:16:31;12.40;99.90
35523;DHT22;61478;50.820;4.330;2023-04-24T11:19:06;12.50;99.90
35523;DHT22;61478;50.820;4.330;2023-04-24T11:22:20;12.40;99.90
35523;DHT22;61478;50.820;4.330;2023-04-24T11:24:38;12.60;99.90
35523;DHT22;61478;50.820;4.330;2023-04-24T11:29:41;12.90;99.90
35523;DHT22;61478;50.820;4.330;2023-04-24T11:32:19;12.80;99.90
35523;DHT22;61478;50.820;4.330;2023-04-24T11:34:49;12.80;99.90
35523;DHT22;61478;50.820;4.330;2023-04-24T11:37:16;12.80;99.90
35523;DHT22;61478;50.820;4.330;2023-04-24T11:39:42;12.80;99.90
35523;DHT22;61478;50.820;4.330;2023-04-24T11:42:14;12.70;99.90
35523;DHT22;61478;50.820;4.330;2023-04-24T11:44:42;12.70;99.90
35523;DHT22;61478;50.820;4.330;2023-04-24T11:47:08;12.70;99.90
35523;DHT22;61478;50.820;4.330;2023-04-24T11:49:37;12.90;99.90
35523;DHT22;61478;50.820;4.330;2023-04-24T11:52:04;12.90;99.90
35523;DHT22;61478;50.820;4.330;2023-04-24T11:54:30;13.00;99.90
35523;DHT22;61478;50.820;4.330;2023-04-24T11:56:57;13.30;99.90
35523;DHT22;61478;50.820;4.330;2023-04-24T11:59:23;13.30;99.90
35523;DHT22;61478;50.820;4.330;2023-04-24T12:01:49;13.10;99.90
35523;DHT22;61478;50.820;4.330;2023-04-24T12:04:17;13.20;99.90
35523;DHT22;61478;50.820;4.330;2023-04-24T12:07:03;13.10;99.90
35523;DHT22;61478;50.820;4.330;2023-04-24T12:09:40;13.30;99.90
35523;DHT22;61478;50.820;4.330;2023-04-24T12:12:07;13.70;99.90
35523;DHT22;61478;50.820;4.330;2023-04-24T12:14:33;13.90;99.90
35523;DHT22;61478;50.820;4.330;2023-04-24T12:16:58;14.30;99.90
35523;DHT22;61478;50.820;4.330;2023-04-24T12:19:24;14.50;99.90
35523;DHT22;61478;50.820;4.330;2023-04-24T12:22:05;14.80;99.90
35523;DHT22;61478;50.820;4.330;2023-04-24T12:24:31;14.90;99.90
35523;DHT22;61478;50.820;4.330;2023-04-24T12:26:58;14.70;99.90
35523;DHT22;61478;50.820;4.330;2023-04-24T12:29:24;14.40;99.90
35523;DHT22;61478;50.820;4.330;2023-04-24T12:31:51;14.40;99.90
35523;DHT22;61478;50.820;4.330;2023-04-24T12:34:21;14.70;99.90
35523;DHT22;61478;50.820;4.330;2023-04-24T12:36:50;14.40;99.90
35523;DHT22;61478;50.820;4.330;2023-04-24T12:39:20;14.40;99.90
35523;DHT22;61478;50.820;4.330;2023-04-24T12:41:58;14.40;99.90
35523;DHT22;61478;50.820;4.330;2023-04-24T12:44:31;14.90;99.90
35523;DHT22;61478;50.820;4.330;2023-04-24T12:46:57;14.70;99.90
35523;DHT22;61478;50.820;4.330;2023-04-24T12:49:23;14.30;99.90
35523;DHT22;61478;50.820;4.330;2023-04-24T12:51:49;14.20;99.90
35523;DHT22;61478;50.820;4.330;2023-04-24T12:54:15;14.50;99.90
35523;DHT22;61478;50.820;4.330;2023-04-24T12:56:41;14.90;99.90
35523;DHT22;61478;50.820;4.330;2023-04-24T12:59:06;15.00;99.90
35523;DHT22;61478;50.820;4.330;2023-04-24T13:01:32;15.30;99.90
35523;DHT22;61478;50.820;4.330;2023-04-24T13:03:58;15.50;99.90
35523;DHT22;61478;50.820;4.330;2023-04-24T13:06:24;15.40;99.90
35523;DHT22;61478;50.820;4.330;2023-04-24T13:08:52;15.20;99.90
35523;DHT22;61478;50.820;4.330;2023-04-24T13:11:18;14.70;99.90
35523;DHT22;61478;50.820;4.330;2023-04-24T13:13:44;14.70;99.90
35523;DHT22;61478;50.820;4.330;2023-04-24T13:16:10;14.60;99.90
35523;DHT22;61478;50.820;4.330;2023-04-24T13:18:36;14.20;99.90
35523;DHT22;61478;50.820;4.330;2023-04-24T13:21:02;14.00;99.90
35523;DHT22;61478;50.820;4.330;2023-04-24T13:23:28;14.20;99.90
35523;DHT22;61478;50.820;4.330;2023-04-24T13:25:54;14.40;99.90
35523;DHT22;61478;50.820;4.330;2023-04-24T13:28:26;14.30;99.90
35523;DHT22;61478;50.820;4.330;2023-04-24T13:30:52;14.50;99.90
35523;DHT22;61478;50.820;4.330;2023-04-24T13:33:18;14.90;99.90
35523;DHT22;61478;50.820;4.330;2023-04-24T13:35:44;15.20;99.90
35523;DHT22;61478;50.820;4.330;2023-04-24T13:38:10;15.50;99.90
35523;DHT22;61478;50.820;4.330;2023-04-24T13:40:36;15.50;99.90
35523;DHT22;61478;50.820;4.330;2023-04-24T13:43:02;15.50;99.90
35523;DHT22;61478;50.820;4.330;2023-04-24T13:45:28;15.30;99.90
35523;DHT22;61478;50.820;4.330;2023-04-24T13:47:54;15.60;99.90
35523;DHT22;61478;50.820;4.330;2023-04-24T13:50:20;15.40;99.90
35523;DHT22;61478;50.820;4.330;2023-04-24T13:52:46;15.20;99.90
35523;DHT22;61478;50.820;4.330;2023-04-24T13:55:12;15.20;99.90
35523;DHT22;61478;50.820;4.330;2023-04-24T13:57:38;15.50;99.90
35523;DHT22;61478;50.820;4.330;2023-04-24T14:00:04;15.60;99.90
35523;DHT22;61478;50.820;4.330;2023-04-24T14:02:32;15.20;99.90
35523;DHT22;61478;50.820;4.330;2023-04-24T14:04:58;14.70;99.90
35523;DHT22;61478;50.820;4.330;2023-04-24T14:07:24;14.80;99.90
35523;DHT22;61478;50.820;4.330;2023-04-24T14:09:50;15.20;99.90
35523;DHT22;61478;50.820;4.330;2023-04-24T14:12:16;15.30;99.90
35523;DHT22;61478;50.820;4.330;2023-04-24T14:14:45;15.50;99.90
35523;DHT22;61478;50.820;4.330;2023-04-24T14:17:11;15.50;99.90
35523;DHT22;61478;50.820;4.330;2023-04-24T14:19:37;15.10;99.90
35523;DHT22;61478;50.820;4.330;2023-04-24T14:22:03;14.80;99.90
35523;DHT22;61478;50.820;4.330;2023-04-24T14:24:29;14.50;99.90
35523;DHT22;61478;50.820;4.330;2023-04-24T14:26:55;14.70;99.90
35523;DHT22;61478;50.820;4.330;2023-04-24T14:29:22;14.90;99.90
35523;DHT22;61478;50.820;4.330;2023-04-24T14:31:48;15.20;99.90
35523;DHT22;61478;50.820;4.330;2023-04-24T14:34:14;15.00;99.90
35523;DHT22;61478;50.820;4.330;2023-04-24T14:36:40;14.80;99.90
35523;DHT22;61478;50.820;4.330;2023-04-24T14:39:07;14.00;99.90
35523;DHT22;61478;50.820;4.330;2023-04-24T14:41:33;13.80;99.90
35523;DHT22;61478;50.820;4.330;2023-04-24T14:44:04;13.50;99.90
35523;DHT22;61478;50.820;4.330;2023-04-24T14:46:30;13.50;99.90
35523;DHT22;61478;50.820;4.330;2023-04-24T14:48:57;13.50;99.90
35523;DHT22;61478;50.820;4.330;2023-04-24T14:51:23;13.40;99.90
35523;DHT22;61478;50.820;4.330;2023-04-24T14:53:49;13.30;99.90
35523;DHT22;61478;50.820;4.330;2023-04-24T14:56:15;13.10;99.90
35523;DHT22;61478;50.820;4.330;2023-04-24T14:58:41;13.20;99.90
35523;DHT22;61478;50.820;4.330;2023-04-24T15:01:07;13.30;99.90
35523;DHT22;61478;50.820;4.330;2023-04-24T15:03:32;13.40;99.90
35523;DHT22;61478;50.820;4.330;2023-04-24T15:05:58;13.60;99.90
35523;DHT22;61478;50.820;4.330;2023-04-24T15:08:25;13.80;99.90
35523;DHT22;61478;50.820;4.330;2023-04-24T15:10:51;14.10;99.90
35523;DHT22;61478;50.820;4.330;2023-04-24T15:13:17;14.20;99.90
35523;DHT22;61478;50.820;4.330;2023-04-24T15:15:42;14.30;99.90
35523;DHT22;61478;50.820;4.330;2023-04-24T15:18:09;14.50;99.90
35523;DHT22;61478;50.820;4.330;2023-04-24T15:20:37;14.10;99.90
35523;DHT22;61478;50.820;4.330;2023-04-24T15:23:05;13.90;99.90
35523;DHT22;61478;50.820;4.330;2023-04-24T15:25:32;14.00;99.90
35523;DHT22;61478;50.820;4.330;2023-04-24T15:27:58;14.20;99.90
35523;DHT22;61478;50.820;4.330;2023-04-24T15:30:24;14.00;99.90
35523;DHT22;61478;50.820;4.330;2023-04-24T15:32:50;13.80;99.90
35523;DHT22;61478;50.820;4.330;2023-04-24T15:35:16;13.70;99.90
35523;DHT22;61478;50.820;4.330;2023-04-24T15:37:43;13.60;99.90
35523;DHT22;61478;50.820;4.330;2023-04-24T15:40:09;13.60;99.90
35523;DHT22;61478;50.820;4.330;2023-04-24T15:42:39;14.00;99.90
35523;DHT22;61478;50.820;4.330;2023-04-24T15:45:05;14.30;99.90
35523;DHT22;61478;50.820;4.330;2023-04-24T15:47:32;14.70;99.90